Accueil
METAR-TAF:

METAR-TAF

Aéroports :

Xi'an, Chine

Aéroport international de Xi'an Xianyang

latitude: 34-26N, longitude: 108-45E, altitude: 479 m

Observation

Le bulletin a été fait il y a 25 minutes, à 15:00 UTC
Vent 2 kt de ouest
Température 20°C
Humidité 100%
Pression 1015 hPa
Visibilité: 8000 m

METAR: ZLXY 191500Z 28001MPS 8000 NSC 20/20 Q1015 NOSIG

Heure: 23:25 (15:25 UTC)

Prévision

Le bulletin a été fait il y a 6 heures et 20 minutes, à 09:05 UTC
Prévision valable du 19 à 12 UTC au 20 à 12 UTC
Vent 6 kt de ouest/sud-ouest
Visibilité: 3000 m
brume

TAF: ZLXY 190905Z 1912/2012 24003MPS 3000 BR NSC TX29/2007Z TN18/1922Z

Observations et prévisions météorologiques de plus de 4000 aéroports (messages METAR et TAF).

Les stations disponibles sont représentées par des disques jaunes et rouges sur la carte.

Passer la souris dessus pour voir le nom de la station.

Cliquer dessus pour voir les observations et prévisions météorologiques.

Pour changer de carte: cliquez sur les boutons verts avec une croix noire pour zoomer, sur le bouton vert avec un tiret pour effectuer un zoom arrière, ou sur les flèches vertes pour les cartes adjacentes.


METAR-TAF: